sensor_id;sensor_type;location;lat;lon;timestamp;P1;durP1;ratioP1;P2;durP2;ratioP2
1220;SDS011;600;48.044;7.878;2022-07-29T00:01:38;4.87;;;4.47;;
1220;SDS011;600;48.044;7.878;2022-07-29T00:04:04;4.47;;;4.17;;
1220;SDS011;600;48.044;7.878;2022-07-29T00:06:31;4.17;;;3.87;;
1220;SDS011;600;48.044;7.878;2022-07-29T00:08:57;4.50;;;4.20;;
1220;SDS011;600;48.044;7.878;2022-07-29T00:11:25;4.77;;;4.47;;
1220;SDS011;600;48.044;7.878;2022-07-29T00:13:52;5.17;;;4.77;;
1220;SDS011;600;48.044;7.878;2022-07-29T00:16:19;4.93;;;4.63;;
1220;SDS011;600;48.044;7.878;2022-07-29T00:18:46;4.63;;;4.30;;
1220;SDS011;600;48.044;7.878;2022-07-29T00:21:12;5.20;;;4.70;;
1220;SDS011;600;48.044;7.878;2022-07-29T00:23:39;4.33;;;4.03;;
1220;SDS011;600;48.044;7.878;2022-07-29T00:26:06;4.60;;;4.23;;
1220;SDS011;600;48.044;7.878;2022-07-29T00:28:34;4.87;;;4.57;;
1220;SDS011;600;48.044;7.878;2022-07-29T00:31:01;4.83;;;4.53;;
1220;SDS011;600;48.044;7.878;2022-07-29T00:33:28;4.90;;;4.50;;
1220;SDS011;600;48.044;7.878;2022-07-29T00:35:54;5.03;;;4.57;;
1220;SDS011;600;48.044;7.878;2022-07-29T00:38:20;5.10;;;4.60;;
1220;SDS011;600;48.044;7.878;2022-07-29T00:40:47;5.27;;;4.87;;
1220;SDS011;600;48.044;7.878;2022-07-29T00:43:14;5.30;;;4.90;;
1220;SDS011;600;48.044;7.878;2022-07-29T00:45:42;5.20;;;4.80;;
1220;SDS011;600;48.044;7.878;2022-07-29T00:48:09;4.77;;;4.47;;
1220;SDS011;600;48.044;7.878;2022-07-29T00:50:36;4.90;;;4.60;;
1220;SDS011;600;48.044;7.878;2022-07-29T00:53:03;5.00;;;4.70;;
1220;SDS011;600;48.044;7.878;2022-07-29T00:55:32;5.10;;;4.80;;
1220;SDS011;600;48.044;7.878;2022-07-29T00:57:58;5.50;;;5.03;;
1220;SDS011;600;48.044;7.878;2022-07-29T01:00:26;5.10;;;4.80;;
1220;SDS011;600;48.044;7.878;2022-07-29T01:02:55;5.03;;;4.60;;
1220;SDS011;600;48.044;7.878;2022-07-29T01:05:23;6.47;;;5.57;;
1220;SDS011;600;48.044;7.878;2022-07-29T01:07:52;6.20;;;5.70;;
1220;SDS011;600;48.044;7.878;2022-07-29T01:10:20;5.97;;;5.40;;
1220;SDS011;600;48.044;7.878;2022-07-29T01:12:48;5.70;;;5.30;;
1220;SDS011;600;48.044;7.878;2022-07-29T01:15:16;5.67;;;5.27;;
1220;SDS011;600;48.044;7.878;2022-07-29T01:17:44;5.90;;;5.50;;
1220;SDS011;600;48.044;7.878;2022-07-29T01:20:20;5.83;;;5.43;;
1220;SDS011;600;48.044;7.878;2022-07-29T01:22:53;6.10;;;5.60;;
1220;SDS011;600;48.044;7.878;2022-07-29T01:25:54;5.53;;;5.13;;
1220;SDS011;600;48.044;7.878;2022-07-29T01:28:39;5.27;;;4.90;;
1220;SDS011;600;48.044;7.878;2022-07-29T01:31:12;4.97;;;4.63;;
1220;SDS011;600;48.044;7.878;2022-07-29T01:33:43;5.97;;;5.50;;
1220;SDS011;600;48.044;7.878;2022-07-29T01:36:17;5.97;;;5.47;;
1220;SDS011;600;48.044;7.878;2022-07-29T01:38:53;5.47;;;5.07;;
1220;SDS011;600;48.044;7.878;2022-07-29T01:41:24;5.77;;;5.27;;
1220;SDS011;600;48.044;7.878;2022-07-29T01:43:57;6.13;;;5.73;;
1220;SDS011;600;48.044;7.878;2022-07-29T01:46:28;5.27;;;4.87;;
1220;SDS011;600;48.044;7.878;2022-07-29T01:48:59;6.03;;;5.60;;
1220;SDS011;600;48.044;7.878;2022-07-29T01:51:32;5.67;;;5.27;;
1220;SDS011;600;48.044;7.878;2022-07-29T01:54:04;5.33;;;4.93;;
1220;SDS011;600;48.044;7.878;2022-07-29T01:56:36;5.67;;;5.27;;
1220;SDS011;600;48.044;7.878;2022-07-29T01:59:06;6.13;;;5.63;;
1220;SDS011;600;48.044;7.878;2022-07-29T02:01:35;4.33;;;4.00;;
1220;SDS011;600;48.044;7.878;2022-07-29T02:04:03;5.57;;;5.10;;
1220;SDS011;600;48.044;7.878;2022-07-29T02:06:34;5.73;;;5.23;;
1220;SDS011;600;48.044;7.878;2022-07-29T02:09:04;5.80;;;5.40;;
1220;SDS011;600;48.044;7.878;2022-07-29T02:11:33;5.10;;;4.70;;
1220;SDS011;600;48.044;7.878;2022-07-29T02:14:01;5.67;;;4.97;;
1220;SDS011;600;48.044;7.878;2022-07-29T02:16:31;5.40;;;5.00;;
1220;SDS011;600;48.044;7.878;2022-07-29T02:19:00;5.90;;;5.50;;
1220;SDS011;600;48.044;7.878;2022-07-29T02:21:29;5.13;;;4.80;;
1220;SDS011;600;48.044;7.878;2022-07-29T02:23:59;4.90;;;4.40;;
1220;SDS011;600;48.044;7.878;2022-07-29T02:26:27;5.50;;;5.10;;
1220;SDS011;600;48.044;7.878;2022-07-29T02:28:56;6.67;;;6.17;;
1220;SDS011;600;48.044;7.878;2022-07-29T02:31:25;5.57;;;5.07;;
1220;SDS011;600;48.044;7.878;2022-07-29T02:33:57;5.80;;;5.40;;
1220;SDS011;600;48.044;7.878;2022-07-29T02:36:25;5.77;;;5.27;;
1220;SDS011;600;48.044;7.878;2022-07-29T02:38:53;5.83;;;5.43;;
1220;SDS011;600;48.044;7.878;2022-07-29T02:41:23;5.63;;;5.13;;
1220;SDS011;600;48.044;7.878;2022-07-29T02:43:53;5.37;;;4.97;;
1220;SDS011;600;48.044;7.878;2022-07-29T02:46:26;5.73;;;5.33;;
1220;SDS011;600;48.044;7.878;2022-07-29T02:48:58;6.40;;;5.80;;
1220;SDS011;600;48.044;7.878;2022-07-29T02:51:28;5.67;;;5.17;;
1220;SDS011;600;48.044;7.878;2022-07-29T02:54:01;5.57;;;5.17;;
1220;SDS011;600;48.044;7.878;2022-07-29T02:56:32;5.57;;;5.20;;
1220;SDS011;600;48.044;7.878;2022-07-29T02:59:03;5.40;;;5.00;;
1220;SDS011;600;48.044;7.878;2022-07-29T03:01:33;5.60;;;5.10;;
1220;SDS011;600;48.044;7.878;2022-07-29T03:04:06;5.33;;;4.93;;
1220;SDS011;600;48.044;7.878;2022-07-29T03:06:35;5.00;;;4.70;;
1220;SDS011;600;48.044;7.878;2022-07-29T03:09:04;4.90;;;4.60;;
1220;SDS011;600;48.044;7.878;2022-07-29T03:11:33;4.97;;;4.60;;
1220;SDS011;600;48.044;7.878;2022-07-29T03:14:00;4.93;;;4.57;;
1220;SDS011;600;48.044;7.878;2022-07-29T03:16:28;5.60;;;4.60;;
1220;SDS011;600;48.044;7.878;2022-07-29T03:18:55;5.47;;;5.07;;
1220;SDS011;600;48.044;7.878;2022-07-29T03:21:24;4.70;;;4.30;;
1220;SDS011;600;48.044;7.878;2022-07-29T03:23:50;5.13;;;4.73;;
1220;SDS011;600;48.044;7.878;2022-07-29T03:26:17;4.60;;;4.30;;
1220;SDS011;600;48.044;7.878;2022-07-29T03:28:45;4.80;;;4.50;;
1220;SDS011;600;48.044;7.878;2022-07-29T03:31:12;4.53;;;4.23;;
1220;SDS011;600;48.044;7.878;2022-07-29T03:33:38;4.77;;;4.37;;
1220;SDS011;600;48.044;7.878;2022-07-29T03:36:05;4.30;;;4.00;;
1220;SDS011;600;48.044;7.878;2022-07-29T03:38:33;4.80;;;4.30;;
1220;SDS011;600;48.044;7.878;2022-07-29T03:41:03;5.30;;;4.90;;
1220;SDS011;600;48.044;7.878;2022-07-29T03:43:34;4.50;;;4.10;;
1220;SDS011;600;48.044;7.878;2022-07-29T03:46:03;4.33;;;4.03;;
1220;SDS011;600;48.044;7.878;2022-07-29T03:48:32;4.27;;;3.97;;
1220;SDS011;600;48.044;7.878;2022-07-29T03:51:00;4.47;;;4.10;;
1220;SDS011;600;48.044;7.878;2022-07-29T03:53:27;4.47;;;4.17;;
1220;SDS011;600;48.044;7.878;2022-07-29T03:55:57;4.40;;;4.03;;
1220;SDS011;600;48.044;7.878;2022-07-29T03:58:26;4.73;;;4.33;;
1220;SDS011;600;48.044;7.878;2022-07-29T04:00:54;5.17;;;4.77;;
1220;SDS011;600;48.044;7.878;2022-07-29T04:03:21;4.70;;;4.30;;
1220;SDS011;600;48.044;7.878;2022-07-29T04:05:57;5.10;;;4.70;;
1220;SDS011;600;48.044;7.878;2022-07-29T04:08:25;4.60;;;4.30;;
1220;SDS011;600;48.044;7.878;2022-07-29T04:10:52;4.70;;;4.40;;
1220;SDS011;600;48.044;7.878;2022-07-29T04:13:20;4.67;;;4.37;;
1220;SDS011;600;48.044;7.878;2022-07-29T04:15:47;5.00;;;4.70;;
1220;SDS011;600;48.044;7.878;2022-07-29T04:18:13;5.03;;;4.63;;
1220;SDS011;600;48.044;7.878;2022-07-29T04:20:40;5.07;;;4.77;;
1220;SDS011;600;48.044;7.878;2022-07-29T04:23:07;4.83;;;4.53;;
1220;SDS011;600;48.044;7.878;2022-07-29T04:25:36;4.90;;;4.50;;
1220;SDS011;600;48.044;7.878;2022-07-29T04:28:03;6.53;;;5.13;;
1220;SDS011;600;48.044;7.878;2022-07-29T04:30:31;5.80;;;5.40;;
1220;SDS011;600;48.044;7.878;2022-07-29T04:32:59;5.07;;;4.67;;
1220;SDS011;600;48.044;7.878;2022-07-29T04:35:26;4.87;;;4.50;;
1220;SDS011;600;48.044;7.878;2022-07-29T04:37:53;5.00;;;4.60;;
1220;SDS011;600;48.044;7.878;2022-07-29T04:40:20;5.27;;;4.60;;
1220;SDS011;600;48.044;7.878;2022-07-29T04:42:47;4.43;;;4.20;;
1220;SDS011;600;48.044;7.878;2022-07-29T04:45:13;5.33;;;4.93;;
1220;SDS011;600;48.044;7.878;2022-07-29T04:47:41;5.10;;;4.60;;
1220;SDS011;600;48.044;7.878;2022-07-29T04:50:08;4.97;;;4.60;;
1220;SDS011;600;48.044;7.878;2022-07-29T04:52:36;5.20;;;4.80;;
1220;SDS011;600;48.044;7.878;2022-07-29T04:55:03;4.70;;;4.40;;
1220;SDS011;600;48.044;7.878;2022-07-29T04:57:30;5.10;;;4.70;;
1220;SDS011;600;48.044;7.878;2022-07-29T04:59:57;4.90;;;4.60;;
1220;SDS011;600;48.044;7.878;2022-07-29T05:02:24;4.97;;;4.63;;
1220;SDS011;600;48.044;7.878;2022-07-29T05:04:52;4.40;;;4.00;;
1220;SDS011;600;48.044;7.878;2022-07-29T05:07:19;4.77;;;4.37;;
1220;SDS011;600;48.044;7.878;2022-07-29T05:09:46;4.73;;;4.33;;
1220;SDS011;600;48.044;7.878;2022-07-29T05:12:12;4.73;;;4.33;;
1220;SDS011;600;48.044;7.878;2022-07-29T05:14:39;4.57;;;4.30;;
1220;SDS011;600;48.044;7.878;2022-07-29T05:17:06;4.87;;;4.57;;
1220;SDS011;600;48.044;7.878;2022-07-29T05:19:33;5.00;;;4.60;;
1220;SDS011;600;48.044;7.878;2022-07-29T05:22:01;4.10;;;3.90;;
1220;SDS011;600;48.044;7.878;2022-07-29T05:24:27;5.67;;;4.17;;
1220;SDS011;600;48.044;7.878;2022-07-29T05:26:54;5.80;;;5.30;;
1220;SDS011;600;48.044;7.878;2022-07-29T05:29:21;6.27;;;4.60;;
1220;SDS011;600;48.044;7.878;2022-07-29T05:31:47;4.10;;;3.90;;
1220;SDS011;600;48.044;7.878;2022-07-29T05:34:15;6.00;;;5.50;;
1220;SDS011;600;48.044;7.878;2022-07-29T05:36:43;4.50;;;4.20;;
1220;SDS011;600;48.044;7.878;2022-07-29T05:39:11;5.60;;;5.10;;
1220;SDS011;600;48.044;7.878;2022-07-29T05:41:38;5.80;;;5.40;;
1220;SDS011;600;48.044;7.878;2022-07-29T05:44:05;5.23;;;4.83;;
1220;SDS011;600;48.044;7.878;2022-07-29T05:46:32;5.77;;;5.27;;
1220;SDS011;600;48.044;7.878;2022-07-29T05:48:58;4.80;;;4.50;;
1220;SDS011;600;48.044;7.878;2022-07-29T05:51:25;5.70;;;5.20;;
1220;SDS011;600;48.044;7.878;2022-07-29T05:53:52;5.63;;;5.13;;
1220;SDS011;600;48.044;7.878;2022-07-29T05:56:20;5.40;;;4.93;;
1220;SDS011;600;48.044;7.878;2022-07-29T05:58:46;5.33;;;4.37;;
1220;SDS011;600;48.044;7.878;2022-07-29T06:01:13;5.37;;;4.83;;
1220;SDS011;600;48.044;7.878;2022-07-29T06:03:41;5.00;;;4.60;;
1220;SDS011;600;48.044;7.878;2022-07-29T06:06:08;5.60;;;5.07;;
1220;SDS011;600;48.044;7.878;2022-07-29T06:08:35;5.30;;;4.80;;
1220;SDS011;600;48.044;7.878;2022-07-29T06:14:25;5.53;;;5.10;;
1220;SDS011;600;48.044;7.878;2022-07-29T06:16:53;6.13;;;5.53;;
1220;SDS011;600;48.044;7.878;2022-07-29T06:22:42;7.40;;;6.13;;
1220;SDS011;600;48.044;7.878;2022-07-29T06:25:09;6.10;;;5.60;;
1220;SDS011;600;48.044;7.878;2022-07-29T06:27:36;7.47;;;6.67;;
1220;SDS011;600;48.044;7.878;2022-07-29T06:30:05;6.40;;;5.90;;
1220;SDS011;600;48.044;7.878;2022-07-29T06:32:32;6.63;;;6.13;;
1220;SDS011;600;48.044;7.878;2022-07-29T06:34:59;6.73;;;5.90;;
1220;SDS011;600;48.044;7.878;2022-07-29T06:37:26;6.13;;;5.63;;
1220;SDS011;600;48.044;7.878;2022-07-29T06:39:52;6.57;;;5.97;;
1220;SDS011;600;48.044;7.878;2022-07-29T06:42:33;5.17;;;4.70;;
1220;SDS011;600;48.044;7.878;2022-07-29T06:45:00;5.50;;;5.00;;
1220;SDS011;600;48.044;7.878;2022-07-29T06:47:28;6.03;;;5.53;;
1220;SDS011;600;48.044;7.878;2022-07-29T06:49:55;6.60;;;5.50;;
1220;SDS011;600;48.044;7.878;2022-07-29T06:52:21;7.10;;;5.07;;
1220;SDS011;600;48.044;7.878;2022-07-29T06:54:48;5.93;;;5.33;;
1220;SDS011;600;48.044;7.878;2022-07-29T06:57:15;5.77;;;5.23;;
1220;SDS011;600;48.044;7.878;2022-07-29T06:59:42;5.30;;;4.80;;
1220;SDS011;600;48.044;7.878;2022-07-29T07:02:08;5.60;;;4.97;;
1220;SDS011;600;48.044;7.878;2022-07-29T07:04:37;6.03;;;5.43;;
1220;SDS011;600;48.044;7.878;2022-07-29T07:07:03;5.80;;;5.20;;
1220;SDS011;600;48.044;7.878;2022-07-29T07:09:31;5.10;;;4.60;;
1220;SDS011;600;48.044;7.878;2022-07-29T07:11:57;4.77;;;4.37;;
1220;SDS011;600;48.044;7.878;2022-07-29T07:14:24;5.73;;;5.23;;
1220;SDS011;600;48.044;7.878;2022-07-29T07:16:51;5.27;;;4.50;;
1220;SDS011;600;48.044;7.878;2022-07-29T07:19:18;6.57;;;4.93;;
1220;SDS011;600;48.044;7.878;2022-07-29T07:21:46;5.00;;;4.60;;
1220;SDS011;600;48.044;7.878;2022-07-29T07:24:13;4.40;;;4.10;;
1220;SDS011;600;48.044;7.878;2022-07-29T07:26:39;4.57;;;4.27;;
1220;SDS011;600;48.044;7.878;2022-07-29T07:29:06;4.67;;;4.37;;
1220;SDS011;600;48.044;7.878;2022-07-29T07:31:33;4.10;;;3.87;;
1220;SDS011;600;48.044;7.878;2022-07-29T07:34:00;7.00;;;4.70;;
1220;SDS011;600;48.044;7.878;2022-07-29T07:36:26;5.07;;;4.37;;
1220;SDS011;600;48.044;7.878;2022-07-29T07:38:54;4.50;;;4.10;;
1220;SDS011;600;48.044;7.878;2022-07-29T07:41:21;4.77;;;4.37;;
1220;SDS011;600;48.044;7.878;2022-07-29T07:43:48;4.70;;;4.30;;
1220;SDS011;600;48.044;7.878;2022-07-29T07:46:15;4.77;;;4.37;;
1220;SDS011;600;48.044;7.878;2022-07-29T07:48:42;5.53;;;5.03;;
1220;SDS011;600;48.044;7.878;2022-07-29T07:51:09;5.93;;;5.33;;
1220;SDS011;600;48.044;7.878;2022-07-29T07:53:36;7.17;;;4.90;;
1220;SDS011;600;48.044;7.878;2022-07-29T07:56:04;7.40;;;4.77;;
1220;SDS011;600;48.044;7.878;2022-07-29T07:58:32;21.60;;;4.97;;
1220;SDS011;600;48.044;7.878;2022-07-29T08:01:00;6.53;;;4.73;;
1220;SDS011;600;48.044;7.878;2022-07-29T08:03:26;10.50;;;4.93;;
1220;SDS011;600;48.044;7.878;2022-07-29T08:05:53;5.53;;;4.77;;
1220;SDS011;600;48.044;7.878;2022-07-29T08:08:20;5.20;;;4.70;;
1220;SDS011;600;48.044;7.878;2022-07-29T08:10:47;4.70;;;4.33;;
1220;SDS011;600;48.044;7.878;2022-07-29T08:13:23;5.73;;;5.07;;
1220;SDS011;600;48.044;7.878;2022-07-29T08:15:53;4.23;;;3.83;;
1220;SDS011;600;48.044;7.878;2022-07-29T08:18:24;4.90;;;4.40;;
1220;SDS011;600;48.044;7.878;2022-07-29T08:20:51;5.10;;;4.40;;
1220;SDS011;600;48.044;7.878;2022-07-29T08:23:18;4.50;;;4.20;;
1220;SDS011;600;48.044;7.878;2022-07-29T08:25:45;5.40;;;4.70;;
1220;SDS011;600;48.044;7.878;2022-07-29T08:28:11;4.90;;;4.40;;
1220;SDS011;600;48.044;7.878;2022-07-29T08:30:40;5.73;;;4.87;;
1220;SDS011;600;48.044;7.878;2022-07-29T08:33:07;4.13;;;3.83;;
1220;SDS011;600;48.044;7.878;2022-07-29T08:35:33;4.27;;;3.87;;
1220;SDS011;600;48.044;7.878;2022-07-29T08:38:00;4.90;;;4.50;;
1220;SDS011;600;48.044;7.878;2022-07-29T08:40:28;4.60;;;4.30;;
1220;SDS011;600;48.044;7.878;2022-07-29T08:42:55;4.37;;;4.07;;
1220;SDS011;600;48.044;7.878;2022-07-29T08:45:22;5.17;;;4.33;;
1220;SDS011;600;48.044;7.878;2022-07-29T08:47:52;4.77;;;4.13;;
1220;SDS011;600;48.044;7.878;2022-07-29T08:50:19;4.13;;;3.83;;
1220;SDS011;600;48.044;7.878;2022-07-29T08:52:46;4.10;;;3.80;;
1220;SDS011;600;48.044;7.878;2022-07-29T08:55:15;7.53;;;5.00;;
1220;SDS011;600;48.044;7.878;2022-07-29T08:57:42;4.07;;;3.77;;
1220;SDS011;600;48.044;7.878;2022-07-29T09:00:10;4.83;;;4.30;;
1220;SDS011;600;48.044;7.878;2022-07-29T09:02:39;4.90;;;4.57;;
1220;SDS011;600;48.044;7.878;2022-07-29T09:05:08;4.73;;;4.33;;
1220;SDS011;600;48.044;7.878;2022-07-29T09:07:35;4.53;;;4.23;;
1220;SDS011;600;48.044;7.878;2022-07-29T09:10:05;4.80;;;4.40;;
1220;SDS011;600;48.044;7.878;2022-07-29T09:12:32;4.03;;;3.63;;
1220;SDS011;600;48.044;7.878;2022-07-29T09:14:59;5.03;;;4.60;;
1220;SDS011;600;48.044;7.878;2022-07-29T09:17:42;3.97;;;3.67;;
1220;SDS011;600;48.044;7.878;2022-07-29T09:20:12;4.70;;;4.07;;
1220;SDS011;600;48.044;7.878;2022-07-29T09:22:41;4.70;;;4.30;;
1220;SDS011;600;48.044;7.878;2022-07-29T09:25:08;4.93;;;4.47;;
1220;SDS011;600;48.044;7.878;2022-07-29T09:27:37;5.07;;;4.33;;
1220;SDS011;600;48.044;7.878;2022-07-29T09:30:04;3.87;;;3.57;;
1220;SDS011;600;48.044;7.878;2022-07-29T09:32:53;3.67;;;3.37;;
1220;SDS011;600;48.044;7.878;2022-07-29T09:35:23;5.80;;;4.03;;
1220;SDS011;600;48.044;7.878;2022-07-29T09:37:51;6.90;;;3.70;;
1220;SDS011;600;48.044;7.878;2022-07-29T09:40:19;6.57;;;3.97;;
1220;SDS011;600;48.044;7.878;2022-07-29T09:42:47;4.73;;;4.30;;
1220;SDS011;600;48.044;7.878;2022-07-29T09:45:25;5.83;;;4.63;;
1220;SDS011;600;48.044;7.878;2022-07-29T09:47:53;4.33;;;3.90;;
1220;SDS011;600;48.044;7.878;2022-07-29T09:50:35;4.80;;;3.40;;
1220;SDS011;600;48.044;7.878;2022-07-29T09:53:03;3.57;;;3.27;;
1220;SDS011;600;48.044;7.878;2022-07-29T09:55:29;4.67;;;4.00;;
1220;SDS011;600;48.044;7.878;2022-07-29T10:00:42;4.00;;;3.70;;
1220;SDS011;600;48.044;7.878;2022-07-29T10:09:55;4.20;;;3.90;;
1220;SDS011;600;48.044;7.878;2022-07-29T10:12:22;4.63;;;4.23;;
1220;SDS011;600;48.044;7.878;2022-07-29T10:14:49;3.40;;;3.10;;
1220;SDS011;600;48.044;7.878;2022-07-29T10:17:16;3.57;;;3.27;;
1220;SDS011;600;48.044;7.878;2022-07-29T10:19:44;3.87;;;3.67;;
1220;SDS011;600;48.044;7.878;2022-07-29T10:22:11;6.17;;;3.57;;
1220;SDS011;600;48.044;7.878;2022-07-29T10:24:37;4.00;;;3.67;;
1220;SDS011;600;48.044;7.878;2022-07-29T10:27:07;3.90;;;3.27;;
1220;SDS011;600;48.044;7.878;2022-07-29T10:29:34;4.53;;;4.13;;
1220;SDS011;600;48.044;7.878;2022-07-29T10:32:10;3.73;;;3.43;;
1220;SDS011;600;48.044;7.878;2022-07-29T10:34:50;5.20;;;3.77;;
1220;SDS011;600;48.044;7.878;2022-07-29T10:37:37;4.20;;;3.80;;
1220;SDS011;600;48.044;7.878;2022-07-29T10:40:26;3.80;;;3.50;;
1220;SDS011;600;48.044;7.878;2022-07-29T10:43:18;3.70;;;3.40;;
1220;SDS011;600;48.044;7.878;2022-07-29T10:45:48;5.27;;;3.90;;
1220;SDS011;600;48.044;7.878;2022-07-29T10:48:20;3.90;;;3.60;;
1220;SDS011;600;48.044;7.878;2022-07-29T10:50:53;3.20;;;2.83;;
1220;SDS011;600;48.044;7.878;2022-07-29T10:53:21;3.83;;;3.43;;
1220;SDS011;600;48.044;7.878;2022-07-29T10:55:49;4.73;;;3.70;;
1220;SDS011;600;48.044;7.878;2022-07-29T10:58:19;3.60;;;3.23;;
1220;SDS011;600;48.044;7.878;2022-07-29T11:00:47;3.80;;;3.50;;
1220;SDS011;600;48.044;7.878;2022-07-29T11:06:08;4.03;;;3.63;;
1220;SDS011;600;48.044;7.878;2022-07-29T11:08:35;4.13;;;3.80;;
1220;SDS011;600;48.044;7.878;2022-07-29T11:14:04;3.60;;;3.30;;
1220;SDS011;600;48.044;7.878;2022-07-29T11:19:28;4.90;;;3.27;;
1220;SDS011;600;48.044;7.878;2022-07-29T11:21:55;5.50;;;3.67;;
1220;SDS011;600;48.044;7.878;2022-07-29T11:24:23;5.67;;;3.87;;
1220;SDS011;600;48.044;7.878;2022-07-29T11:27:08;3.40;;;3.17;;
1220;SDS011;600;48.044;7.878;2022-07-29T11:29:39;7.10;;;3.83;;
1220;SDS011;600;48.044;7.878;2022-07-29T11:32:17;3.90;;;3.50;;
1220;SDS011;600;48.044;7.878;2022-07-29T11:34:47;5.20;;;3.40;;
1220;SDS011;600;48.044;7.878;2022-07-29T11:37:18;3.13;;;2.93;;
1220;SDS011;600;48.044;7.878;2022-07-29T11:42:38;4.23;;;3.93;;
1220;SDS011;600;48.044;7.878;2022-07-29T11:45:22;10.40;;;3.80;;
1220;SDS011;600;48.044;7.878;2022-07-29T11:47:54;4.40;;;4.00;;
1220;SDS011;600;48.044;7.878;2022-07-29T11:50:33;3.70;;;3.40;;
1220;SDS011;600;48.044;7.878;2022-07-29T11:53:01;6.03;;;4.07;;
1220;SDS011;600;48.044;7.878;2022-07-29T11:55:29;3.87;;;3.57;;
1220;SDS011;600;48.044;7.878;2022-07-29T11:58:00;4.23;;;3.93;;
1220;SDS011;600;48.044;7.878;2022-07-29T12:00:29;4.10;;;3.60;;
1220;SDS011;600;48.044;7.878;2022-07-29T12:02:58;3.77;;;3.57;;
1220;SDS011;600;48.044;7.878;2022-07-29T12:05:33;5.83;;;4.60;;
1220;SDS011;600;48.044;7.878;2022-07-29T12:08:05;3.83;;;3.60;;
1220;SDS011;600;48.044;7.878;2022-07-29T12:10:36;4.17;;;3.87;;
1220;SDS011;600;48.044;7.878;2022-07-29T12:13:04;5.10;;;3.77;;
1220;SDS011;600;48.044;7.878;2022-07-29T12:15:33;3.40;;;3.10;;
1220;SDS011;600;48.044;7.878;2022-07-29T12:18:08;4.70;;;4.30;;
1220;SDS011;600;48.044;7.878;2022-07-29T12:20:36;4.03;;;3.63;;
1220;SDS011;600;48.044;7.878;2022-07-29T12:23:04;4.13;;;3.83;;
1220;SDS011;600;48.044;7.878;2022-07-29T12:25:33;3.73;;;3.43;;
1220;SDS011;600;48.044;7.878;2022-07-29T12:28:03;4.20;;;3.80;;
1220;SDS011;600;48.044;7.878;2022-07-29T12:30:37;5.30;;;4.03;;
1220;SDS011;600;48.044;7.878;2022-07-29T12:33:12;4.07;;;3.77;;
1220;SDS011;600;48.044;7.878;2022-07-29T12:35:41;3.90;;;3.60;;
1220;SDS011;600;48.044;7.878;2022-07-29T12:38:10;4.07;;;3.67;;
1220;SDS011;600;48.044;7.878;2022-07-29T12:40:38;3.83;;;3.53;;
1220;SDS011;600;48.044;7.878;2022-07-29T12:43:05;3.80;;;3.50;;
1220;SDS011;600;48.044;7.878;2022-07-29T12:45:34;4.10;;;3.80;;
1220;SDS011;600;48.044;7.878;2022-07-29T12:48:03;6.03;;;3.53;;
1220;SDS011;600;48.044;7.878;2022-07-29T12:50:30;3.67;;;3.43;;
1220;SDS011;600;48.044;7.878;2022-07-29T12:53:07;3.70;;;3.40;;
1220;SDS011;600;48.044;7.878;2022-07-29T12:55:38;3.70;;;3.50;;
1220;SDS011;600;48.044;7.878;2022-07-29T12:58:06;4.20;;;3.90;;
1220;SDS011;600;48.044;7.878;2022-07-29T13:00:33;4.20;;;3.90;;
1220;SDS011;600;48.044;7.878;2022-07-29T13:03:00;3.80;;;3.50;;
1220;SDS011;600;48.044;7.878;2022-07-29T13:05:39;3.93;;;3.33;;
1220;SDS011;600;48.044;7.878;2022-07-29T13:08:11;6.00;;;3.80;;
1220;SDS011;600;48.044;7.878;2022-07-29T13:10:39;3.90;;;3.50;;
1220;SDS011;600;48.044;7.878;2022-07-29T13:13:06;5.57;;;3.90;;
1220;SDS011;600;48.044;7.878;2022-07-29T13:15:35;5.50;;;3.70;;
1220;SDS011;600;48.044;7.878;2022-07-29T13:18:02;4.23;;;3.83;;
1220;SDS011;600;48.044;7.878;2022-07-29T13:20:30;4.20;;;3.80;;
1220;SDS011;600;48.044;7.878;2022-07-29T13:22:59;3.40;;;3.20;;
1220;SDS011;600;48.044;7.878;2022-07-29T13:25:27;4.37;;;3.97;;
1220;SDS011;600;48.044;7.878;2022-07-29T13:27:56;3.87;;;3.57;;
1220;SDS011;600;48.044;7.878;2022-07-29T13:30:24;4.53;;;2.83;;
1220;SDS011;600;48.044;7.878;2022-07-29T13:32:52;3.50;;;3.20;;
1220;SDS011;600;48.044;7.878;2022-07-29T13:35:20;3.97;;;3.60;;
1220;SDS011;600;48.044;7.878;2022-07-29T13:37:47;4.67;;;3.40;;
1220;SDS011;600;48.044;7.878;2022-07-29T13:40:15;3.60;;;3.30;;
1220;SDS011;600;48.044;7.878;2022-07-29T13:42:42;3.03;;;2.83;;
1220;SDS011;600;48.044;7.878;2022-07-29T13:45:09;2.87;;;2.77;;
1220;SDS011;600;48.044;7.878;2022-07-29T13:47:37;4.00;;;3.30;;
1220;SDS011;600;48.044;7.878;2022-07-29T13:50:04;4.20;;;3.20;;
1220;SDS011;600;48.044;7.878;2022-07-29T13:52:33;3.60;;;3.33;;
1220;SDS011;600;48.044;7.878;2022-07-29T13:55:00;3.90;;;3.03;;
1220;SDS011;600;48.044;7.878;2022-07-29T13:57:28;3.60;;;3.20;;
1220;SDS011;600;48.044;7.878;2022-07-29T13:59:55;3.13;;;2.93;;
1220;SDS011;600;48.044;7.878;2022-07-29T14:02:22;3.13;;;2.93;;
1220;SDS011;600;48.044;7.878;2022-07-29T14:04:49;3.97;;;3.57;;
1220;SDS011;600;48.044;7.878;2022-07-29T14:07:16;4.77;;;3.60;;
1220;SDS011;600;48.044;7.878;2022-07-29T14:09:43;3.70;;;3.40;;
1220;SDS011;600;48.044;7.878;2022-07-29T14:12:10;10.27;;;3.50;;
1220;SDS011;600;48.044;7.878;2022-07-29T14:14:38;17.30;;;3.50;;
1220;SDS011;600;48.044;7.878;2022-07-29T14:17:06;18.83;;;3.80;;
1220;SDS011;600;48.044;7.878;2022-07-29T14:19:33;22.03;;;5.53;;
1220;SDS011;600;48.044;7.878;2022-07-29T14:22:02;20.20;;;3.97;;
1220;SDS011;600;48.044;7.878;2022-07-29T14:24:29;4.63;;;3.23;;
1220;SDS011;600;48.044;7.878;2022-07-29T14:26:56;3.30;;;3.00;;
1220;SDS011;600;48.044;7.878;2022-07-29T14:29:23;37.63;;;6.00;;
1220;SDS011;600;48.044;7.878;2022-07-29T14:31:51;11.10;;;3.80;;
1220;SDS011;600;48.044;7.878;2022-07-29T14:34:18;3.47;;;3.17;;
1220;SDS011;600;48.044;7.878;2022-07-29T14:36:44;12.63;;;3.47;;
1220;SDS011;600;48.044;7.878;2022-07-29T14:39:11;2.97;;;2.60;;
1220;SDS011;600;48.044;7.878;2022-07-29T14:41:38;10.40;;;3.67;;
1220;SDS011;600;48.044;7.878;2022-07-29T14:44:05;2.80;;;2.60;;
1220;SDS011;600;48.044;7.878;2022-07-29T14:46:31;12.77;;;3.70;;
1220;SDS011;600;48.044;7.878;2022-07-29T14:48:59;3.20;;;2.47;;
1220;SDS011;600;48.044;7.878;2022-07-29T14:51:26;3.37;;;2.40;;
1220;SDS011;600;48.044;7.878;2022-07-29T14:53:53;2.73;;;2.40;;
1220;SDS011;600;48.044;7.878;2022-07-29T14:56:21;2.70;;;2.60;;
1220;SDS011;600;48.044;7.878;2022-07-29T14:58:48;2.33;;;2.13;;
1220;SDS011;600;48.044;7.878;2022-07-29T15:01:14;5.17;;;2.40;;
1220;SDS011;600;48.044;7.878;2022-07-29T15:07:05;3.70;;;2.47;;
1220;SDS011;600;48.044;7.878;2022-07-29T15:09:33;5.00;;;2.83;;
1220;SDS011;600;48.044;7.878;2022-07-29T15:11:59;3.10;;;2.50;;
1220;SDS011;600;48.044;7.878;2022-07-29T15:17:49;2.83;;;2.63;;
1220;SDS011;600;48.044;7.878;2022-07-29T15:20:16;2.00;;;1.90;;
1220;SDS011;600;48.044;7.878;2022-07-29T15:22:45;2.50;;;2.30;;
1220;SDS011;600;48.044;7.878;2022-07-29T15:25:12;4.57;;;2.30;;
1220;SDS011;600;48.044;7.878;2022-07-29T15:27:39;2.47;;;2.37;;
1220;SDS011;600;48.044;7.878;2022-07-29T15:30:06;2.57;;;2.37;;
1220;SDS011;600;48.044;7.878;2022-07-29T15:32:34;2.20;;;2.00;;
1220;SDS011;600;48.044;7.878;2022-07-29T15:35:00;1.90;;;1.80;;
1220;SDS011;600;48.044;7.878;2022-07-29T15:37:27;2.03;;;1.70;;
1220;SDS011;600;48.044;7.878;2022-07-29T15:39:56;5.33;;;2.73;;
1220;SDS011;600;48.044;7.878;2022-07-29T16:48:52;2.63;;;2.20;;
1220;SDS011;600;48.044;7.878;2022-07-29T16:58:03;2.00;;;1.80;;
1220;SDS011;600;48.044;7.878;2022-07-29T17:00:30;2.47;;;1.80;;
1220;SDS011;600;48.044;7.878;2022-07-29T17:02:57;4.37;;;1.70;;
1220;SDS011;600;48.044;7.878;2022-07-29T17:05:25;6.27;;;2.37;;
1220;SDS011;600;48.044;7.878;2022-07-29T17:07:52;2.83;;;2.00;;
1220;SDS011;600;48.044;7.878;2022-07-29T17:10:19;2.53;;;1.80;;
1220;SDS011;600;48.044;7.878;2022-07-29T17:12:46;2.17;;;1.93;;
1220;SDS011;600;48.044;7.878;2022-07-29T17:15:13;1.77;;;1.60;;
1220;SDS011;600;48.044;7.878;2022-07-29T17:17:42;2.80;;;1.80;;
1220;SDS011;600;48.044;7.878;2022-07-29T17:20:10;5.20;;;1.90;;
